TAIP21 YCBG-YCBG
Flight info
| Callsign | TAIP21 |
|---|---|
| Flight time | 1h 53m |
| Altitude | 5500 |
| Route | VFR |
| Aircraft | EC45/L-SDFGRY/C |
Departure
| Time | 2026-04-23 05:42 |
|---|---|
| Airport | Cambridge Aerodrome (YCBG) |
Arrival
| Time | 2026-04-23 07:35 |
|---|---|
| Airport | Cambridge Aerodrome (YCBG) |
| Time | Latitude | Longitude | Altitude | Speed | Heading |
|---|---|---|---|---|---|
| 2026-04-23 05:33 | -42.82882 | 147.47662 | 58 ft | 0 kts | 195° |
| 2026-04-23 05:38 | -42.82883 | 147.47652 | 61 ft | 1 kts | 169° |
| 2026-04-23 05:38 | -42.82893 | 147.47655 | 62 ft | 2 kts | 124° |
| 2026-04-23 05:38 | -42.82902 | 147.47681 | 62 ft | 2 kts | 114° |
| 2026-04-23 05:38 | -42.82907 | 147.47700 | 60 ft | 2 kts | 97° |
| 2026-04-23 05:39 | -42.82909 | 147.47726 | 60 ft | 2 kts | 101° |
| 2026-04-23 05:39 | -42.82916 | 147.47760 | 67 ft | 5 kts | 100° |
| 2026-04-23 05:39 | -42.82921 | 147.47810 | 57 ft | 2 kts | 97° |
| 2026-04-23 05:39 | -42.82921 | 147.47812 | 56 ft | 0 kts | 96° |
| 2026-04-23 05:40 | -42.82921 | 147.47813 | 62 ft | 1 kts | 95° |
| 2026-04-23 05:40 | -42.82911 | 147.47819 | 61 ft | 5 kts | 339° |
| 2026-04-23 05:41 | -42.82870 | 147.47801 | 66 ft | 10 kts | 339° |
| 2026-04-23 05:41 | -42.82677 | 147.47737 | 127 ft | 45 kts | 345° |
| 2026-04-23 05:41 | -42.82250 | 147.47636 | 326 ft | 78 kts | 346° |
| 2026-04-23 05:41 | -42.81611 | 147.47467 | 500 ft | 103 kts | 347° |
| 2026-04-23 05:42 | -42.80931 | 147.47267 | 771 ft | 105 kts | 343° |
| 2026-04-23 05:42 | -42.80190 | 147.47040 | 943 ft | 111 kts | 340° |
| 2026-04-23 05:42 | -42.79436 | 147.46707 | 1070 ft | 115 kts | 336° |
| 2026-04-23 05:42 | -42.78704 | 147.46265 | 1183 ft | 116 kts | 330° |
| 2026-04-23 05:43 | -42.77998 | 147.45705 | 1293 ft | 116 kts | 323° |
| 2026-04-23 05:43 | -42.77356 | 147.45050 | 1397 ft | 116 kts | 317° |
| 2026-04-23 05:43 | -42.76734 | 147.44363 | 1478 ft | 116 kts | 324° |
| 2026-04-23 05:43 | -42.75940 | 147.44154 | 1570 ft | 114 kts | 355° |
| 2026-04-23 05:44 | -42.75171 | 147.44176 | 1699 ft | 111 kts | 356° |
| 2026-04-23 05:44 | -42.74376 | 147.44209 | 1774 ft | 113 kts | 357° |
| 2026-04-23 05:44 | -42.73589 | 147.44252 | 1842 ft | 113 kts | 357° |
| 2026-04-23 05:44 | -42.72806 | 147.44301 | 1901 ft | 113 kts | 358° |
| 2026-04-23 05:45 | -42.72015 | 147.44357 | 1960 ft | 113 kts | 358° |
| 2026-04-23 05:45 | -42.71218 | 147.44418 | 2007 ft | 115 kts | 358° |
| 2026-04-23 05:45 | -42.70416 | 147.44369 | 2010 ft | 116 kts | 336° |
| 2026-04-23 05:45 | -42.69769 | 147.43716 | 2017 ft | 117 kts | 316° |
| 2026-04-23 05:46 | -42.69176 | 147.42982 | 2096 ft | 111 kts | 316° |
| 2026-04-23 05:46 | -42.68657 | 147.42345 | 2426 ft | 94 kts | 318° |
| 2026-04-23 05:46 | -42.67998 | 147.42007 | 2459 ft | 105 kts | 343° |
| 2026-04-23 05:46 | -42.67260 | 147.41780 | 2472 ft | 112 kts | 343° |
| 2026-04-23 05:47 | -42.66485 | 147.41544 | 2472 ft | 114 kts | 342° |
| 2026-04-23 05:47 | -42.65692 | 147.41304 | 2479 ft | 117 kts | 343° |
| 2026-04-23 05:47 | -42.64903 | 147.41064 | 2475 ft | 117 kts | 343° |
| 2026-04-23 05:47 | -42.64104 | 147.40823 | 2475 ft | 117 kts | 343° |
| 2026-04-23 05:48 | -42.63310 | 147.40584 | 2481 ft | 116 kts | 343° |
| 2026-04-23 05:48 | -42.62509 | 147.40346 | 2494 ft | 118 kts | 342° |
| 2026-04-23 05:48 | -42.61698 | 147.40109 | 2466 ft | 118 kts | 343° |
| 2026-04-23 05:48 | -42.60902 | 147.39880 | 2482 ft | 117 kts | 343° |
| 2026-04-23 05:49 | -42.60104 | 147.39651 | 2480 ft | 117 kts | 343° |
| 2026-04-23 05:49 | -42.59306 | 147.39421 | 2475 ft | 117 kts | 342° |
| 2026-04-23 05:49 | -42.58519 | 147.39192 | 2473 ft | 115 kts | 343° |
| 2026-04-23 05:49 | -42.57731 | 147.38953 | 2483 ft | 115 kts | 342° |
| 2026-04-23 05:50 | -42.56956 | 147.38718 | 2477 ft | 114 kts | 342° |
| 2026-04-23 05:50 | -42.56154 | 147.38594 | 2470 ft | 114 kts | 351° |
| 2026-04-23 05:50 | -42.55360 | 147.38515 | 2484 ft | 115 kts | 351° |
| 2026-04-23 05:50 | -42.54565 | 147.38434 | 2483 ft | 115 kts | 350° |
| 2026-04-23 05:51 | -42.53758 | 147.38358 | 2483 ft | 116 kts | 350° |
| 2026-04-23 05:51 | -42.52951 | 147.38283 | 2480 ft | 116 kts | 350° |
| 2026-04-23 05:51 | -42.52148 | 147.38203 | 2488 ft | 116 kts | 350° |
| 2026-04-23 05:51 | -42.51337 | 147.38117 | 2490 ft | 117 kts | 350° |
| 2026-04-23 05:52 | -42.50518 | 147.38028 | 2486 ft | 117 kts | 350° |
| 2026-04-23 05:52 | -42.49708 | 147.37942 | 2474 ft | 117 kts | 350° |
| 2026-04-23 05:52 | -42.48897 | 147.37865 | 2486 ft | 116 kts | 350° |
| 2026-04-23 05:52 | -42.48085 | 147.37787 | 2482 ft | 115 kts | 351° |
| 2026-04-23 05:53 | -42.47286 | 147.37712 | 2469 ft | 115 kts | 350° |
| 2026-04-23 05:53 | -42.46486 | 147.37636 | 2499 ft | 115 kts | 349° |
| 2026-04-23 05:53 | -42.45687 | 147.37561 | 2484 ft | 116 kts | 350° |
| 2026-04-23 05:53 | -42.44884 | 147.37488 | 2493 ft | 115 kts | 350° |
| 2026-04-23 05:54 | -42.44075 | 147.37413 | 2491 ft | 116 kts | 350° |
| 2026-04-23 05:54 | -42.43262 | 147.37337 | 2491 ft | 117 kts | 350° |
| 2026-04-23 05:54 | -42.42445 | 147.37259 | 2489 ft | 117 kts | 351° |
| 2026-04-23 05:54 | -42.41636 | 147.37180 | 2492 ft | 117 kts | 350° |
| 2026-04-23 05:55 | -42.40830 | 147.37097 | 2483 ft | 116 kts | 351° |
| 2026-04-23 05:55 | -42.40022 | 147.37019 | 2484 ft | 115 kts | 350° |
| 2026-04-23 05:55 | -42.39215 | 147.36942 | 2495 ft | 115 kts | 350° |
| 2026-04-23 05:55 | -42.38420 | 147.36865 | 2493 ft | 115 kts | 350° |
| 2026-04-23 05:56 | -42.37617 | 147.36792 | 2503 ft | 116 kts | 351° |
| 2026-04-23 05:56 | -42.36810 | 147.36716 | 2498 ft | 116 kts | 349° |
| 2026-04-23 05:56 | -42.36000 | 147.36641 | 2483 ft | 115 kts | 350° |
| 2026-04-23 05:56 | -42.35212 | 147.36592 | 2477 ft | 116 kts | 357° |
| 2026-04-23 05:57 | -42.34410 | 147.36797 | 2503 ft | 115 kts | 5° |
| 2026-04-23 05:57 | -42.33623 | 147.37030 | 2498 ft | 116 kts | 5° |
| 2026-04-23 05:57 | -42.32830 | 147.37262 | 2504 ft | 117 kts | 5° |
| 2026-04-23 05:57 | -42.32022 | 147.37500 | 2504 ft | 118 kts | 5° |
| 2026-04-23 05:58 | -42.31225 | 147.37736 | 2505 ft | 118 kts | 6° |
| 2026-04-23 05:58 | -42.30425 | 147.37976 | 2509 ft | 117 kts | 5° |
| 2026-04-23 05:58 | -42.29621 | 147.38213 | 2511 ft | 117 kts | 5° |
| 2026-04-23 05:58 | -42.28820 | 147.38441 | 2494 ft | 118 kts | 5° |
| 2026-04-23 05:59 | -42.28024 | 147.38672 | 2500 ft | 116 kts | 5° |
| 2026-04-23 05:59 | -42.27236 | 147.38905 | 2498 ft | 116 kts | 5° |
| 2026-04-23 05:59 | -42.26440 | 147.39142 | 2501 ft | 116 kts | 5° |
| 2026-04-23 05:59 | -42.25648 | 147.39378 | 2475 ft | 116 kts | 5° |
| 2026-04-23 06:00 | -42.24870 | 147.39625 | 2474 ft | 114 kts | 5° |
| 2026-04-23 06:00 | -42.24100 | 147.39813 | 2483 ft | 111 kts | 351° |
| 2026-04-23 06:00 | -42.23399 | 147.39418 | 2503 ft | 110 kts | 326° |
| 2026-04-23 06:00 | -42.22725 | 147.38879 | 2485 ft | 112 kts | 325° |
| 2026-04-23 06:01 | -42.22052 | 147.38338 | 2512 ft | 113 kts | 325° |
| 2026-04-23 06:01 | -42.21374 | 147.37791 | 2500 ft | 115 kts | 326° |
| 2026-04-23 06:01 | -42.20685 | 147.37236 | 2490 ft | 114 kts | 326° |
| 2026-04-23 06:01 | -42.20008 | 147.36690 | 2499 ft | 113 kts | 325° |
| 2026-04-23 06:02 | -42.19331 | 147.36140 | 2505 ft | 114 kts | 326° |
| 2026-04-23 06:02 | -42.18652 | 147.35591 | 2505 ft | 113 kts | 326° |
| 2026-04-23 06:02 | -42.17972 | 147.35042 | 2514 ft | 113 kts | 326° |
| 2026-04-23 06:02 | -42.17298 | 147.34494 | 2518 ft | 113 kts | 325° |
| 2026-04-23 06:03 | -42.16622 | 147.33949 | 2517 ft | 112 kts | 325° |
| 2026-04-23 06:03 | -42.15943 | 147.33403 | 2518 ft | 112 kts | 325° |
| 2026-04-23 06:03 | -42.15273 | 147.32864 | 2519 ft | 112 kts | 325° |
| 2026-04-23 06:03 | -42.14601 | 147.32324 | 2517 ft | 113 kts | 325° |
| 2026-04-23 06:04 | -42.13926 | 147.31781 | 2515 ft | 112 kts | 326° |
| 2026-04-23 06:04 | -42.13254 | 147.31241 | 2515 ft | 112 kts | 325° |
| 2026-04-23 06:04 | -42.12585 | 147.30702 | 2517 ft | 113 kts | 325° |
| 2026-04-23 06:04 | -42.11902 | 147.30156 | 2513 ft | 114 kts | 326° |
| 2026-04-23 06:05 | -42.11218 | 147.29607 | 2508 ft | 113 kts | 325° |
| 2026-04-23 06:05 | -42.10541 | 147.29062 | 2507 ft | 112 kts | 326° |
| 2026-04-23 06:05 | -42.09828 | 147.28650 | 2471 ft | 114 kts | 341° |
| 2026-04-23 06:05 | -42.09061 | 147.28450 | 2509 ft | 110 kts | 343° |
| 2026-04-23 06:06 | -42.08296 | 147.28261 | 2554 ft | 113 kts | 343° |
| 2026-04-23 06:06 | -42.07507 | 147.28058 | 2521 ft | 115 kts | 343° |
| 2026-04-23 06:06 | -42.06729 | 147.27859 | 2499 ft | 113 kts | 344° |
| 2026-04-23 06:06 | -42.05963 | 147.27666 | 2545 ft | 111 kts | 343° |
| 2026-04-23 06:07 | -42.05188 | 147.27475 | 2500 ft | 113 kts | 343° |
| 2026-04-23 06:07 | -42.04420 | 147.27280 | 2509 ft | 114 kts | 343° |
| 2026-04-23 06:07 | -42.03643 | 147.27072 | 2497 ft | 113 kts | 343° |
| 2026-04-23 06:07 | -42.02874 | 147.26866 | 2499 ft | 113 kts | 344° |
| 2026-04-23 06:08 | -42.02102 | 147.26648 | 2495 ft | 113 kts | 343° |
| 2026-04-23 06:08 | -42.01329 | 147.26427 | 2498 ft | 114 kts | 343° |
| 2026-04-23 06:08 | -42.00544 | 147.26202 | 2497 ft | 115 kts | 343° |
| 2026-04-23 06:08 | -41.99757 | 147.25983 | 2491 ft | 115 kts | 343° |
| 2026-04-23 06:09 | -41.98965 | 147.25764 | 2484 ft | 114 kts | 343° |
| 2026-04-23 06:09 | -41.98190 | 147.25555 | 2493 ft | 114 kts | 343° |
| 2026-04-23 06:09 | -41.97410 | 147.25345 | 2494 ft | 113 kts | 343° |
| 2026-04-23 06:09 | -41.96641 | 147.25137 | 2497 ft | 113 kts | 343° |
| 2026-04-23 06:10 | -41.95866 | 147.24925 | 2499 ft | 113 kts | 343° |
| 2026-04-23 06:10 | -41.95092 | 147.24709 | 2499 ft | 113 kts | 343° |
| 2026-04-23 06:10 | -41.94319 | 147.24490 | 2496 ft | 113 kts | 343° |
| 2026-04-23 06:10 | -41.93542 | 147.24268 | 2496 ft | 114 kts | 343° |
| 2026-04-23 06:11 | -41.92760 | 147.24042 | 2500 ft | 113 kts | 343° |
| 2026-04-23 06:11 | -41.91987 | 147.23819 | 2498 ft | 114 kts | 343° |
| 2026-04-23 06:11 | -41.91211 | 147.23598 | 2498 ft | 114 kts | 343° |
| 2026-04-23 06:11 | -41.90423 | 147.23381 | 2498 ft | 114 kts | 343° |
| 2026-04-23 06:12 | -41.89646 | 147.23171 | 2499 ft | 114 kts | 343° |
| 2026-04-23 06:12 | -41.88866 | 147.22965 | 2501 ft | 113 kts | 343° |
| 2026-04-23 06:12 | -41.87409 | 147.22272 | 2523 ft | 112 kts | 318° |
| 2026-04-23 06:13 | -41.86814 | 147.21580 | 2505 ft | 114 kts | 316° |
| 2026-04-23 06:13 | -41.86213 | 147.20874 | 2513 ft | 114 kts | 316° |
| 2026-04-23 06:13 | -41.85612 | 147.20172 | 2517 ft | 114 kts | 317° |
| 2026-04-23 06:13 | -41.85023 | 147.19481 | 2521 ft | 114 kts | 316° |
| 2026-04-23 06:14 | -41.84414 | 147.18770 | 2507 ft | 115 kts | 316° |
| 2026-04-23 06:14 | -41.83808 | 147.18060 | 2492 ft | 116 kts | 317° |
| 2026-04-23 06:14 | -41.83200 | 147.17340 | 2487 ft | 116 kts | 316° |
| 2026-04-23 06:14 | -41.82601 | 147.16629 | 2488 ft | 116 kts | 316° |
| 2026-04-23 06:15 | -41.81994 | 147.15898 | 2484 ft | 116 kts | 316° |
| 2026-04-23 06:15 | -41.81391 | 147.15173 | 2484 ft | 116 kts | 316° |
| 2026-04-23 06:15 | -41.80795 | 147.14458 | 2484 ft | 115 kts | 316° |
| 2026-04-23 06:15 | -41.80200 | 147.13754 | 2484 ft | 114 kts | 316° |
| 2026-04-23 06:16 | -41.79601 | 147.13049 | 2484 ft | 114 kts | 316° |
| 2026-04-23 06:16 | -41.79003 | 147.12346 | 2484 ft | 114 kts | 316° |
| 2026-04-23 06:16 | -41.78403 | 147.11636 | 2488 ft | 114 kts | 316° |
| 2026-04-23 06:16 | -41.77802 | 147.10927 | 2485 ft | 115 kts | 316° |
| 2026-04-23 06:17 | -41.77207 | 147.10225 | 2487 ft | 114 kts | 316° |
| 2026-04-23 06:17 | -41.76604 | 147.09514 | 2482 ft | 114 kts | 316° |
| 2026-04-23 06:17 | -41.76006 | 147.08809 | 2483 ft | 114 kts | 316° |
| 2026-04-23 06:17 | -41.75409 | 147.08104 | 2482 ft | 114 kts | 316° |
| 2026-04-23 06:18 | -41.74811 | 147.07400 | 2482 ft | 114 kts | 316° |
| 2026-04-23 06:18 | -41.74219 | 147.06700 | 2475 ft | 115 kts | 316° |
| 2026-04-23 06:18 | -41.73621 | 147.05989 | 2477 ft | 116 kts | 316° |
| 2026-04-23 06:18 | -41.73014 | 147.05257 | 2472 ft | 116 kts | 316° |
| 2026-04-23 06:19 | -41.72415 | 147.04541 | 2471 ft | 115 kts | 316° |
| 2026-04-23 06:19 | -41.71820 | 147.03834 | 2473 ft | 115 kts | 316° |
| 2026-04-23 06:19 | -41.71218 | 147.03124 | 2472 ft | 114 kts | 316° |
| 2026-04-23 06:19 | -41.70619 | 147.02416 | 2472 ft | 115 kts | 316° |
| 2026-04-23 06:20 | -41.70015 | 147.01703 | 2472 ft | 115 kts | 316° |
| 2026-04-23 06:20 | -41.69409 | 147.00990 | 2472 ft | 116 kts | 316° |
| 2026-04-23 06:20 | -41.68803 | 147.00276 | 2469 ft | 116 kts | 316° |
| 2026-04-23 06:20 | -41.68193 | 146.99559 | 2471 ft | 116 kts | 316° |
| 2026-04-23 06:21 | -41.67579 | 146.98839 | 2470 ft | 116 kts | 316° |
| 2026-04-23 06:21 | -41.66971 | 146.98119 | 2470 ft | 116 kts | 316° |
| 2026-04-23 06:21 | -41.66367 | 146.97404 | 2474 ft | 116 kts | 316° |
| 2026-04-23 06:21 | -41.65763 | 146.96689 | 2476 ft | 116 kts | 316° |
| 2026-04-23 06:22 | -41.65163 | 146.95970 | 2480 ft | 115 kts | 316° |
| 2026-04-23 06:22 | -41.64563 | 146.95261 | 2477 ft | 115 kts | 316° |
| 2026-04-23 06:22 | -41.63957 | 146.94544 | 2472 ft | 116 kts | 316° |
| 2026-04-23 06:22 | -41.63354 | 146.93826 | 2470 ft | 116 kts | 316° |
| 2026-04-23 06:23 | -41.62744 | 146.93102 | 2468 ft | 116 kts | 316° |
| 2026-04-23 06:23 | -41.62143 | 146.92387 | 2469 ft | 115 kts | 316° |
| 2026-04-23 06:23 | -41.61544 | 146.91678 | 2470 ft | 116 kts | 316° |
| 2026-04-23 06:23 | -41.60939 | 146.90964 | 2469 ft | 115 kts | 316° |
| 2026-04-23 06:24 | -41.60329 | 146.90247 | 2471 ft | 116 kts | 316° |
| 2026-04-23 06:24 | -41.59723 | 146.89534 | 2471 ft | 115 kts | 316° |
| 2026-04-23 06:24 | -41.59118 | 146.88820 | 2472 ft | 115 kts | 316° |
| 2026-04-23 06:24 | -41.58519 | 146.88109 | 2467 ft | 116 kts | 316° |
| 2026-04-23 06:25 | -41.57915 | 146.87392 | 2475 ft | 116 kts | 316° |
| 2026-04-23 06:25 | -41.57308 | 146.86662 | 2471 ft | 117 kts | 316° |
| 2026-04-23 06:25 | -41.56709 | 146.85942 | 2471 ft | 117 kts | 316° |
| 2026-04-23 06:25 | -41.56101 | 146.85211 | 2477 ft | 116 kts | 316° |
| 2026-04-23 06:26 | -41.55505 | 146.84492 | 2484 ft | 116 kts | 316° |
| 2026-04-23 06:26 | -41.54905 | 146.83777 | 2478 ft | 116 kts | 316° |
| 2026-04-23 06:26 | -41.54305 | 146.83061 | 2480 ft | 115 kts | 316° |
| 2026-04-23 06:26 | -41.53701 | 146.82347 | 2479 ft | 115 kts | 316° |
| 2026-04-23 06:27 | -41.53100 | 146.81642 | 2482 ft | 115 kts | 316° |
| 2026-04-23 06:27 | -41.52497 | 146.80936 | 2479 ft | 116 kts | 316° |
| 2026-04-23 06:27 | -41.51894 | 146.80228 | 2482 ft | 114 kts | 316° |
| 2026-04-23 06:27 | -41.51293 | 146.79523 | 2486 ft | 115 kts | 316° |
| 2026-04-23 06:28 | -41.50688 | 146.78812 | 2492 ft | 115 kts | 316° |
| 2026-04-23 06:28 | -41.50091 | 146.78107 | 2487 ft | 115 kts | 316° |
| 2026-04-23 06:28 | -41.49495 | 146.77397 | 2483 ft | 114 kts | 316° |
| 2026-04-23 06:28 | -41.48900 | 146.76678 | 2481 ft | 114 kts | 316° |
| 2026-04-23 06:29 | -41.48320 | 146.75970 | 2481 ft | 113 kts | 316° |
| 2026-04-23 06:29 | -41.47726 | 146.75256 | 2487 ft | 115 kts | 316° |
| 2026-04-23 06:29 | -41.47133 | 146.74545 | 2485 ft | 114 kts | 316° |
| 2026-04-23 06:29 | -41.46534 | 146.73828 | 2486 ft | 115 kts | 316° |
| 2026-04-23 06:30 | -41.45932 | 146.73111 | 2488 ft | 115 kts | 315° |
| 2026-04-23 06:30 | -41.45332 | 146.72401 | 2490 ft | 114 kts | 316° |
| 2026-04-23 06:30 | -41.44740 | 146.71698 | 2493 ft | 115 kts | 316° |
| 2026-04-23 06:30 | -41.44136 | 146.70989 | 2486 ft | 115 kts | 316° |
| 2026-04-23 06:31 | -41.43533 | 146.70276 | 2486 ft | 114 kts | 316° |
| 2026-04-23 06:31 | -41.42944 | 146.69580 | 2482 ft | 113 kts | 316° |
| 2026-04-23 06:31 | -41.42355 | 146.68877 | 2477 ft | 113 kts | 315° |
| 2026-04-23 06:31 | -41.41771 | 146.68175 | 2495 ft | 113 kts | 316° |
| 2026-04-23 06:32 | -41.41176 | 146.67458 | 2487 ft | 115 kts | 316° |
| 2026-04-23 06:32 | -41.40585 | 146.66744 | 2489 ft | 114 kts | 316° |
| 2026-04-23 06:32 | -41.39991 | 146.66028 | 2484 ft | 114 kts | 315° |
| 2026-04-23 06:32 | -41.39401 | 146.65320 | 2488 ft | 114 kts | 315° |
| 2026-04-23 06:33 | -41.38806 | 146.64607 | 2481 ft | 114 kts | 316° |
| 2026-04-23 06:33 | -41.38215 | 146.63901 | 2475 ft | 113 kts | 315° |
| 2026-04-23 06:33 | -41.37620 | 146.63196 | 2477 ft | 113 kts | 315° |
| 2026-04-23 06:33 | -41.37034 | 146.62503 | 2491 ft | 114 kts | 315° |
| 2026-04-23 06:34 | -41.36434 | 146.61798 | 2489 ft | 115 kts | 316° |
| 2026-04-23 06:34 | -41.35836 | 146.61092 | 2478 ft | 114 kts | 315° |
| 2026-04-23 06:34 | -41.35238 | 146.60384 | 2470 ft | 113 kts | 315° |
| 2026-04-23 06:34 | -41.34653 | 146.59679 | 2483 ft | 114 kts | 315° |
| 2026-04-23 06:35 | -41.34065 | 146.58971 | 2480 ft | 114 kts | 315° |
| 2026-04-23 06:35 | -41.33473 | 146.58256 | 2479 ft | 114 kts | 315° |
| 2026-04-23 06:35 | -41.32887 | 146.57548 | 2479 ft | 114 kts | 315° |
| 2026-04-23 06:35 | -41.32293 | 146.56836 | 2479 ft | 115 kts | 315° |
| 2026-04-23 06:36 | -41.31982 | 146.56465 | 2481 ft | 115 kts | 316° |
| 2026-04-23 06:36 | -41.31393 | 146.55759 | 2479 ft | 115 kts | 315° |
| 2026-04-23 06:36 | -41.30800 | 146.55049 | 2477 ft | 115 kts | 315° |
| 2026-04-23 06:36 | -41.30198 | 146.54335 | 2478 ft | 114 kts | 315° |
| 2026-04-23 06:37 | -41.29602 | 146.53628 | 2473 ft | 114 kts | 315° |
| 2026-04-23 06:37 | -41.29003 | 146.52922 | 2483 ft | 114 kts | 315° |
| 2026-04-23 06:37 | -41.28405 | 146.52220 | 2476 ft | 115 kts | 315° |
| 2026-04-23 06:37 | -41.27811 | 146.51517 | 2471 ft | 114 kts | 315° |
| 2026-04-23 06:38 | -41.27218 | 146.50812 | 2469 ft | 114 kts | 315° |
| 2026-04-23 06:38 | -41.26629 | 146.50104 | 2472 ft | 114 kts | 315° |
| 2026-04-23 06:38 | -41.26043 | 146.49400 | 2473 ft | 114 kts | 315° |
| 2026-04-23 06:38 | -41.25453 | 146.48685 | 2478 ft | 113 kts | 315° |
| 2026-04-23 06:39 | -41.24867 | 146.47971 | 2475 ft | 114 kts | 315° |
| 2026-04-23 06:39 | -41.24284 | 146.47261 | 2480 ft | 115 kts | 315° |
| 2026-04-23 06:39 | -41.23685 | 146.46533 | 2477 ft | 115 kts | 315° |
| 2026-04-23 06:39 | -41.23095 | 146.45822 | 2483 ft | 115 kts | 315° |
| 2026-04-23 06:40 | -41.22504 | 146.45114 | 2479 ft | 115 kts | 315° |
| 2026-04-23 06:40 | -41.21912 | 146.44408 | 2482 ft | 114 kts | 315° |
| 2026-04-23 06:40 | -41.21312 | 146.43694 | 2485 ft | 114 kts | 315° |
| 2026-04-23 06:40 | -41.20722 | 146.42993 | 2489 ft | 114 kts | 315° |
| 2026-04-23 06:41 | -41.20129 | 146.42288 | 2489 ft | 113 kts | 315° |
| 2026-04-23 06:41 | -41.19521 | 146.41614 | 2460 ft | 115 kts | 325° |
| 2026-04-23 06:41 | -41.18734 | 146.41492 | 2435 ft | 117 kts | 6° |
| 2026-04-23 06:41 | -41.18089 | 146.42149 | 2452 ft | 123 kts | 47° |
| 2026-04-23 06:42 | -41.17897 | 146.43280 | 2468 ft | 128 kts | 80° |
| 2026-04-23 06:42 | -41.17910 | 146.44458 | 2489 ft | 129 kts | 82° |
| 2026-04-23 06:42 | -41.17941 | 146.45642 | 2473 ft | 133 kts | 90° |
| 2026-04-23 06:42 | -41.18401 | 146.46730 | 2434 ft | 137 kts | 131° |
| 2026-04-23 06:43 | -41.19261 | 146.47214 | 2448 ft | 136 kts | 170° |
| 2026-04-23 06:43 | -41.20196 | 146.47322 | 2496 ft | 134 kts | 173° |
| 2026-04-23 06:43 | -41.21141 | 146.47427 | 2514 ft | 137 kts | 174° |
| 2026-04-23 06:43 | -41.22105 | 146.47542 | 2491 ft | 139 kts | 173° |
| 2026-04-23 06:44 | -41.23055 | 146.47652 | 2496 ft | 139 kts | 174° |
| 2026-04-23 06:44 | -41.24023 | 146.47766 | 2493 ft | 138 kts | 174° |
| 2026-04-23 06:44 | -41.24995 | 146.47884 | 2487 ft | 139 kts | 174° |
| 2026-04-23 06:44 | -41.25962 | 146.48003 | 2494 ft | 139 kts | 173° |
| 2026-04-23 06:45 | -41.26927 | 146.48120 | 2496 ft | 139 kts | 174° |
| 2026-04-23 06:45 | -41.27889 | 146.48236 | 2486 ft | 139 kts | 173° |
| 2026-04-23 06:45 | -41.28846 | 146.48347 | 2494 ft | 138 kts | 174° |
| 2026-04-23 06:45 | -41.29812 | 146.48459 | 2492 ft | 137 kts | 174° |
| 2026-04-23 06:46 | -41.30767 | 146.48567 | 2491 ft | 138 kts | 174° |
| 2026-04-23 06:46 | -41.31726 | 146.48679 | 2495 ft | 138 kts | 173° |
| 2026-04-23 06:46 | -41.32687 | 146.48789 | 2495 ft | 138 kts | 173° |
| 2026-04-23 06:46 | -41.33643 | 146.48866 | 2492 ft | 138 kts | 176° |
| 2026-04-23 06:47 | -41.34600 | 146.49042 | 2500 ft | 138 kts | 165° |
| 2026-04-23 06:47 | -41.35505 | 146.49452 | 2506 ft | 139 kts | 154° |
| 2026-04-23 06:47 | -41.36395 | 146.49999 | 2497 ft | 140 kts | 150° |
| 2026-04-23 06:47 | -41.37268 | 146.50575 | 2487 ft | 140 kts | 149° |
| 2026-04-23 06:48 | -41.38132 | 146.51149 | 2482 ft | 139 kts | 150° |
| 2026-04-23 06:48 | -41.39003 | 146.51717 | 2478 ft | 139 kts | 150° |
| 2026-04-23 06:48 | -41.39875 | 146.52281 | 2487 ft | 138 kts | 150° |
| 2026-04-23 06:48 | -41.40738 | 146.52841 | 2479 ft | 138 kts | 151° |
| 2026-04-23 06:49 | -41.41607 | 146.53403 | 2478 ft | 138 kts | 151° |
| 2026-04-23 06:49 | -41.42471 | 146.53964 | 2486 ft | 139 kts | 150° |
| 2026-04-23 06:49 | -41.43332 | 146.54529 | 2479 ft | 138 kts | 150° |
| 2026-04-23 06:49 | -41.44196 | 146.55095 | 2474 ft | 138 kts | 150° |
| 2026-04-23 06:50 | -41.45064 | 146.55662 | 2473 ft | 137 kts | 150° |
| 2026-04-23 06:50 | -41.45925 | 146.56226 | 2479 ft | 138 kts | 150° |
| 2026-04-23 06:50 | -41.46787 | 146.56787 | 2483 ft | 138 kts | 150° |
| 2026-04-23 06:50 | -41.47654 | 146.57353 | 2473 ft | 138 kts | 150° |
| 2026-04-23 06:51 | -41.48514 | 146.57913 | 2477 ft | 139 kts | 150° |
| 2026-04-23 06:51 | -41.49383 | 146.58481 | 2476 ft | 138 kts | 150° |
| 2026-04-23 06:51 | -41.50251 | 146.59045 | 2480 ft | 139 kts | 150° |
| 2026-04-23 06:51 | -41.51112 | 146.59610 | 2481 ft | 138 kts | 150° |
| 2026-04-23 06:52 | -41.51982 | 146.60179 | 2481 ft | 138 kts | 150° |
| 2026-04-23 06:52 | -41.52847 | 146.60744 | 2484 ft | 139 kts | 150° |
| 2026-04-23 06:52 | -41.53714 | 146.61311 | 2481 ft | 138 kts | 150° |
| 2026-04-23 06:52 | -41.54584 | 146.61879 | 2474 ft | 139 kts | 150° |
| 2026-04-23 06:53 | -41.55451 | 146.62447 | 2483 ft | 137 kts | 150° |
| 2026-04-23 06:53 | -41.56315 | 146.63010 | 2482 ft | 137 kts | 150° |
| 2026-04-23 06:53 | -41.57095 | 146.63521 | 2485 ft | 137 kts | 150° |
| 2026-04-23 06:53 | -41.57961 | 146.64088 | 2489 ft | 138 kts | 150° |
| 2026-04-23 06:54 | -41.58660 | 146.64546 | 2492 ft | 138 kts | 150° |
| 2026-04-23 06:54 | -41.59522 | 146.65112 | 2493 ft | 138 kts | 150° |
| 2026-04-23 06:54 | -41.60376 | 146.65672 | 2484 ft | 138 kts | 150° |
| 2026-04-23 06:54 | -41.61218 | 146.66217 | 2684 ft | 125 kts | 152° |
| 2026-04-23 06:55 | -41.61970 | 146.66678 | 3008 ft | 113 kts | 155° |
| 2026-04-23 06:55 | -41.62654 | 146.67079 | 3380 ft | 105 kts | 156° |
| 2026-04-23 06:55 | -41.63369 | 146.67513 | 3491 ft | 123 kts | 154° |
| 2026-04-23 06:55 | -41.64168 | 146.68050 | 3533 ft | 133 kts | 151° |
| 2026-04-23 06:56 | -41.64955 | 146.68590 | 3837 ft | 121 kts | 154° |
| 2026-04-23 06:56 | -41.65678 | 146.69045 | 4201 ft | 113 kts | 158° |
| 2026-04-23 06:56 | -41.66370 | 146.69455 | 4556 ft | 103 kts | 160° |
| 2026-04-23 06:56 | -41.67001 | 146.69826 | 4914 ft | 95 kts | 161° |
| 2026-04-23 06:57 | -41.67567 | 146.70152 | 5294 ft | 87 kts | 163° |
| 2026-04-23 06:57 | -41.68150 | 146.70485 | 5491 ft | 105 kts | 160° |
| 2026-04-23 06:57 | -41.68889 | 146.70973 | 5514 ft | 125 kts | 154° |
| 2026-04-23 06:57 | -41.69682 | 146.71567 | 5516 ft | 135 kts | 152° |
| 2026-04-23 06:58 | -41.70515 | 146.72188 | 5524 ft | 138 kts | 152° |
| 2026-04-23 06:58 | -41.71375 | 146.72794 | 5513 ft | 139 kts | 154° |
| 2026-04-23 06:58 | -41.72241 | 146.73375 | 5512 ft | 139 kts | 155° |
| 2026-04-23 06:58 | -41.73103 | 146.73943 | 5517 ft | 140 kts | 155° |
| 2026-04-23 06:59 | -41.73981 | 146.74519 | 5522 ft | 140 kts | 155° |
| 2026-04-23 06:59 | -41.74860 | 146.75098 | 5516 ft | 140 kts | 155° |
| 2026-04-23 06:59 | -41.75733 | 146.75673 | 5512 ft | 140 kts | 155° |
| 2026-04-23 06:59 | -41.76609 | 146.76248 | 5515 ft | 140 kts | 155° |
| 2026-04-23 07:00 | -41.77494 | 146.76831 | 5521 ft | 140 kts | 155° |
| 2026-04-23 07:00 | -41.78371 | 146.77408 | 5518 ft | 141 kts | 155° |
| 2026-04-23 07:00 | -41.79250 | 146.77986 | 5514 ft | 141 kts | 155° |
| 2026-04-23 07:00 | -41.80141 | 146.78574 | 5513 ft | 141 kts | 155° |
| 2026-04-23 07:01 | -41.81011 | 146.79147 | 5509 ft | 141 kts | 155° |
| 2026-04-23 07:01 | -41.81892 | 146.79730 | 5513 ft | 141 kts | 155° |
| 2026-04-23 07:01 | -41.82773 | 146.80313 | 5507 ft | 140 kts | 155° |
| 2026-04-23 07:01 | -41.83649 | 146.80893 | 5513 ft | 140 kts | 155° |
| 2026-04-23 07:02 | -41.84524 | 146.81471 | 5514 ft | 140 kts | 155° |
| 2026-04-23 07:02 | -41.85397 | 146.82050 | 5514 ft | 140 kts | 155° |
| 2026-04-23 07:02 | -41.86268 | 146.82626 | 5523 ft | 140 kts | 155° |
| 2026-04-23 07:02 | -41.87143 | 146.83208 | 5516 ft | 140 kts | 154° |
| 2026-04-23 07:03 | -41.88020 | 146.83789 | 5523 ft | 141 kts | 155° |
| 2026-04-23 07:03 | -41.88897 | 146.84370 | 5526 ft | 140 kts | 155° |
| 2026-04-23 07:03 | -41.89777 | 146.84950 | 5512 ft | 140 kts | 155° |
| 2026-04-23 07:03 | -41.90652 | 146.85530 | 5503 ft | 140 kts | 155° |
| 2026-04-23 07:04 | -41.91532 | 146.86110 | 5503 ft | 139 kts | 155° |
| 2026-04-23 07:04 | -41.92403 | 146.86684 | 5497 ft | 139 kts | 155° |
| 2026-04-23 07:04 | -41.93273 | 146.87259 | 5513 ft | 139 kts | 155° |
| 2026-04-23 07:04 | -41.94139 | 146.87834 | 5505 ft | 140 kts | 155° |
| 2026-04-23 07:05 | -41.95012 | 146.88411 | 5508 ft | 139 kts | 155° |
| 2026-04-23 07:05 | -41.95881 | 146.88986 | 5506 ft | 139 kts | 155° |
| 2026-04-23 07:05 | -41.96759 | 146.89569 | 5503 ft | 140 kts | 155° |
| 2026-04-23 07:05 | -41.97632 | 146.90147 | 5504 ft | 140 kts | 155° |
| 2026-04-23 07:06 | -41.98505 | 146.90729 | 5504 ft | 140 kts | 155° |
| 2026-04-23 07:06 | -41.99382 | 146.91313 | 5509 ft | 140 kts | 155° |
| 2026-04-23 07:06 | -42.00251 | 146.91893 | 5513 ft | 140 kts | 154° |
| 2026-04-23 07:06 | -42.01131 | 146.92479 | 5519 ft | 139 kts | 154° |
| 2026-04-23 07:07 | -42.01992 | 146.93054 | 5523 ft | 139 kts | 154° |
| 2026-04-23 07:07 | -42.02858 | 146.93630 | 5526 ft | 139 kts | 155° |
| 2026-04-23 07:07 | -42.03731 | 146.94208 | 5524 ft | 140 kts | 155° |
| 2026-04-23 07:07 | -42.04618 | 146.94797 | 5532 ft | 141 kts | 155° |
| 2026-04-23 07:08 | -42.05495 | 146.95380 | 5518 ft | 141 kts | 155° |
| 2026-04-23 07:08 | -42.06381 | 146.95969 | 5512 ft | 141 kts | 155° |
| 2026-04-23 07:08 | -42.07258 | 146.96550 | 5516 ft | 141 kts | 155° |
| 2026-04-23 07:08 | -42.08145 | 146.97141 | 5516 ft | 141 kts | 155° |
| 2026-04-23 07:09 | -42.09022 | 146.97726 | 5506 ft | 141 kts | 155° |
| 2026-04-23 07:09 | -42.09822 | 146.98261 | 5500 ft | 140 kts | 155° |
| 2026-04-23 07:09 | -42.10699 | 146.98843 | 5505 ft | 139 kts | 155° |
| 2026-04-23 07:09 | -42.11564 | 146.99419 | 5503 ft | 140 kts | 155° |
| 2026-04-23 07:10 | -42.12443 | 147.00006 | 5501 ft | 140 kts | 155° |
| 2026-04-23 07:10 | -42.13311 | 147.00586 | 5498 ft | 140 kts | 155° |
| 2026-04-23 07:10 | -42.14191 | 147.01172 | 5497 ft | 140 kts | 155° |
| 2026-04-23 07:10 | -42.15054 | 147.01750 | 5496 ft | 139 kts | 154° |
| 2026-04-23 07:11 | -42.15926 | 147.02335 | 5496 ft | 139 kts | 155° |
| 2026-04-23 07:11 | -42.16790 | 147.02911 | 5493 ft | 139 kts | 155° |
| 2026-04-23 07:11 | -42.17663 | 147.03494 | 5493 ft | 139 kts | 155° |
| 2026-04-23 07:12 | -42.19402 | 147.04654 | 5488 ft | 139 kts | 155° |
| 2026-04-23 07:12 | -42.20278 | 147.05237 | 5492 ft | 140 kts | 155° |
| 2026-04-23 07:12 | -42.21142 | 147.05817 | 5489 ft | 140 kts | 155° |
| 2026-04-23 07:12 | -42.22018 | 147.06403 | 5490 ft | 140 kts | 155° |
| 2026-04-23 07:13 | -42.22899 | 147.06990 | 5488 ft | 141 kts | 155° |
| 2026-04-23 07:13 | -42.23769 | 147.07573 | 5486 ft | 140 kts | 155° |
| 2026-04-23 07:13 | -42.24653 | 147.08166 | 5484 ft | 140 kts | 155° |
| 2026-04-23 07:13 | -42.25525 | 147.08751 | 5485 ft | 140 kts | 155° |
| 2026-04-23 07:14 | -42.26392 | 147.09334 | 5485 ft | 140 kts | 155° |
| 2026-04-23 07:14 | -42.27268 | 147.09923 | 5487 ft | 140 kts | 155° |
| 2026-04-23 07:14 | -42.28148 | 147.10510 | 5483 ft | 140 kts | 155° |
| 2026-04-23 07:14 | -42.29021 | 147.11095 | 5480 ft | 141 kts | 155° |
| 2026-04-23 07:15 | -42.29908 | 147.11691 | 5476 ft | 141 kts | 155° |
| 2026-04-23 07:15 | -42.30782 | 147.12279 | 5474 ft | 141 kts | 155° |
| 2026-04-23 07:15 | -42.31664 | 147.12874 | 5477 ft | 141 kts | 155° |
| 2026-04-23 07:15 | -42.32533 | 147.13458 | 5479 ft | 140 kts | 155° |
| 2026-04-23 07:16 | -42.33412 | 147.14049 | 5479 ft | 141 kts | 155° |
| 2026-04-23 07:16 | -42.34296 | 147.14642 | 5480 ft | 141 kts | 155° |
| 2026-04-23 07:16 | -42.35169 | 147.15228 | 5481 ft | 141 kts | 155° |
| 2026-04-23 07:16 | -42.36045 | 147.15814 | 5482 ft | 141 kts | 155° |
| 2026-04-23 07:17 | -42.36931 | 147.16409 | 5482 ft | 141 kts | 155° |
| 2026-04-23 07:17 | -42.37818 | 147.17007 | 5481 ft | 142 kts | 155° |
| 2026-04-23 07:17 | -42.38692 | 147.17595 | 5480 ft | 141 kts | 155° |
| 2026-04-23 07:17 | -42.39581 | 147.18198 | 5479 ft | 141 kts | 155° |
| 2026-04-23 07:18 | -42.40455 | 147.18793 | 5480 ft | 141 kts | 155° |
| 2026-04-23 07:18 | -42.41343 | 147.19394 | 5481 ft | 141 kts | 155° |
| 2026-04-23 07:18 | -42.42221 | 147.19987 | 5477 ft | 141 kts | 155° |
| 2026-04-23 07:18 | -42.43097 | 147.20578 | 5476 ft | 141 kts | 155° |
| 2026-04-23 07:19 | -42.43990 | 147.21179 | 5474 ft | 142 kts | 155° |
| 2026-04-23 07:19 | -42.44872 | 147.21776 | 5476 ft | 142 kts | 155° |
| 2026-04-23 07:19 | -42.45748 | 147.22368 | 5478 ft | 141 kts | 155° |
| 2026-04-23 07:19 | -42.46633 | 147.22966 | 5481 ft | 141 kts | 155° |
| 2026-04-23 07:20 | -42.47513 | 147.23560 | 5483 ft | 141 kts | 155° |
| 2026-04-23 07:20 | -42.48399 | 147.24159 | 5482 ft | 142 kts | 155° |
| 2026-04-23 07:20 | -42.49284 | 147.24756 | 5482 ft | 142 kts | 155° |
| 2026-04-23 07:20 | -42.50161 | 147.25348 | 5481 ft | 142 kts | 155° |
| 2026-04-23 07:21 | -42.51052 | 147.25949 | 5482 ft | 142 kts | 156° |
| 2026-04-23 07:21 | -42.51938 | 147.26549 | 5482 ft | 142 kts | 156° |
| 2026-04-23 07:21 | -42.52826 | 147.27148 | 5481 ft | 142 kts | 155° |
| 2026-04-23 07:21 | -42.53717 | 147.27751 | 5480 ft | 143 kts | 155° |
| 2026-04-23 07:22 | -42.54603 | 147.28352 | 5477 ft | 143 kts | 156° |
| 2026-04-23 07:22 | -42.55499 | 147.28958 | 5470 ft | 143 kts | 155° |
| 2026-04-23 07:22 | -42.56379 | 147.29556 | 5476 ft | 142 kts | 156° |
| 2026-04-23 07:22 | -42.57267 | 147.30159 | 5476 ft | 143 kts | 156° |
| 2026-04-23 07:23 | -42.58157 | 147.30760 | 5473 ft | 143 kts | 156° |
| 2026-04-23 07:23 | -42.59048 | 147.31364 | 5471 ft | 143 kts | 155° |
| 2026-04-23 07:23 | -42.59932 | 147.31966 | 5471 ft | 143 kts | 155° |
| 2026-04-23 07:23 | -42.60712 | 147.32494 | 5470 ft | 143 kts | 155° |
| 2026-04-23 07:24 | -42.61605 | 147.33101 | 5469 ft | 144 kts | 155° |
| 2026-04-23 07:24 | -42.62513 | 147.33719 | 5435 ft | 147 kts | 155° |
| 2026-04-23 07:24 | -42.63452 | 147.34389 | 5094 ft | 159 kts | 150° |
| 2026-04-23 07:24 | -42.64453 | 147.35110 | 4719 ft | 165 kts | 151° |
| 2026-04-23 07:25 | -42.65468 | 147.35809 | 4354 ft | 165 kts | 151° |
| 2026-04-23 07:25 | -42.66499 | 147.36513 | 3976 ft | 165 kts | 150° |
| 2026-04-23 07:25 | -42.67508 | 147.37201 | 3668 ft | 163 kts | 150° |
| 2026-04-23 07:25 | -42.68532 | 147.37903 | 3293 ft | 164 kts | 149° |
| 2026-04-23 07:26 | -42.69541 | 147.38599 | 2914 ft | 163 kts | 149° |
| 2026-04-23 07:26 | -42.70542 | 147.39285 | 2560 ft | 159 kts | 149° |
| 2026-04-23 07:26 | -42.71525 | 147.39960 | 2220 ft | 158 kts | 148° |
| 2026-04-23 07:26 | -42.72490 | 147.40622 | 1955 ft | 151 kts | 148° |
| 2026-04-23 07:27 | -42.73416 | 147.41258 | 1630 ft | 153 kts | 147° |
| 2026-04-23 07:27 | -42.74350 | 147.41895 | 1477 ft | 142 kts | 148° |
| 2026-04-23 07:27 | -42.75216 | 147.42471 | 1466 ft | 135 kts | 148° |
| 2026-04-23 07:27 | -42.76059 | 147.42946 | 1464 ft | 134 kts | 165° |
| 2026-04-23 07:28 | -42.77005 | 147.42868 | 1376 ft | 135 kts | 184° |
| 2026-04-23 07:28 | -42.77927 | 147.42776 | 1390 ft | 130 kts | 176° |
| 2026-04-23 07:28 | -42.78824 | 147.42833 | 1349 ft | 127 kts | 168° |
| 2026-04-23 07:28 | -42.79670 | 147.43016 | 1463 ft | 116 kts | 163° |
| 2026-04-23 07:29 | -42.80444 | 147.43242 | 1582 ft | 111 kts | 158° |
| 2026-04-23 07:29 | -42.81123 | 147.43539 | 1520 ft | 97 kts | 147° |
| 2026-04-23 07:29 | -42.81724 | 147.43907 | 1481 ft | 91 kts | 145° |
| 2026-04-23 07:29 | -42.82333 | 147.44276 | 1481 ft | 102 kts | 147° |
| 2026-04-23 07:30 | -42.83069 | 147.44516 | 1281 ft | 117 kts | 161° |
| 2026-04-23 07:30 | -42.83841 | 147.44905 | 1114 ft | 117 kts | 138° |
| 2026-04-23 07:30 | -42.84331 | 147.45682 | 1136 ft | 103 kts | 107° |
| 2026-04-23 07:30 | -42.84433 | 147.46587 | 1220 ft | 93 kts | 73° |
| 2026-04-23 07:31 | -42.84189 | 147.47372 | 1218 ft | 89 kts | 45° |
| 2026-04-23 07:31 | -42.83802 | 147.47963 | 1297 ft | 79 kts | 30° |
| 2026-04-23 07:31 | -42.83217 | 147.48201 | 983 ft | 95 kts | 345° |
| 2026-04-23 07:31 | -42.82552 | 147.47971 | 465 ft | 101 kts | 324° |
| 2026-04-23 07:32 | -42.82027 | 147.47490 | 408 ft | 84 kts | 305° |
| 2026-04-23 07:32 | -42.81674 | 147.46927 | 536 ft | 72 kts | 279° |
| 2026-04-23 07:32 | -42.81796 | 147.46321 | 716 ft | 82 kts | 220° |
| 2026-04-23 07:32 | -42.82349 | 147.45875 | 576 ft | 93 kts | 184° |
| 2026-04-23 07:33 | -42.82904 | 147.45989 | 518 ft | 73 kts | 131° |
| 2026-04-23 07:33 | -42.83147 | 147.46547 | 493 ft | 66 kts | 98° |
| 2026-04-23 07:33 | -42.83241 | 147.47133 | 483 ft | 63 kts | 88° |
| 2026-04-23 07:33 | -42.83272 | 147.47748 | 437 ft | 64 kts | 84° |
| 2026-04-23 07:34 | -42.83240 | 147.48355 | 477 ft | 63 kts | 68° |
| 2026-04-23 07:34 | -42.83014 | 147.48805 | 484 ft | 58 kts | 18° |
| 2026-04-23 07:34 | -42.82622 | 147.48814 | 467 ft | 58 kts | 323° |
| 2026-04-23 07:34 | -42.82272 | 147.48524 | 439 ft | 60 kts | 305° |
| 2026-04-23 07:35 | -42.81941 | 147.48171 | 489 ft | 63 kts | 301° |
| 2026-04-23 07:35 | -42.81624 | 147.47722 | 502 ft | 67 kts | 293° |
| 2026-04-23 07:35 | -42.81517 | 147.47172 | 463 ft | 59 kts | 233° |
| 2026-04-23 07:35 | -42.81801 | 147.46954 | 300 ft | 47 kts | 142° |
| 2026-04-23 07:36 | -42.82080 | 147.47166 | 219 ft | 42 kts | 130° |
| 2026-04-23 07:36 | -42.82300 | 147.47342 | 241 ft | 34 kts | 138° |
| 2026-04-23 07:36 | -42.82518 | 147.47523 | 187 ft | 38 kts | 140° |
| 2026-04-23 07:36 | -42.82723 | 147.47687 | 98 ft | 24 kts | 168° |
| 2026-04-23 07:37 | -42.82816 | 147.47693 | 70 ft | 8 kts | 194° |
| 2026-04-23 07:37 | -42.82861 | 147.47679 | 57 ft | 1 kts | 198° |